sensor_id;sensor_type;location;lat;lon;timestamp;pressure;altitude;pressure_sealevel;temperature;humidity
62800;BME280;48842;51.046;13.796;2023-05-20T00:01:11;101136.63;;;16.15;54.69
62800;BME280;48842;51.046;13.796;2023-05-20T00:03:36;101140.16;;;16.11;55.09
62800;BME280;48842;51.046;13.796;2023-05-20T00:06:02;101140.19;;;16.08;55.02
62800;BME280;48842;51.046;13.796;2023-05-20T00:08:27;101144.59;;;16.04;55.27
62800;BME280;48842;51.046;13.796;2023-05-20T00:10:52;101138.47;;;16.01;55.00
62800;BME280;48842;51.046;13.796;2023-05-20T00:13:18;101142.00;;;15.97;55.52
62800;BME280;48842;51.046;13.796;2023-05-20T00:15:43;101145.53;;;15.93;55.53
62800;BME280;48842;51.046;13.796;2023-05-20T00:18:08;101138.50;;;15.88;55.86
62800;BME280;48842;51.046;13.796;2023-05-20T00:20:33;101139.44;;;15.84;55.82
62800;BME280;48842;51.046;13.796;2023-05-20T00:22:59;101125.34;;;15.81;55.75
62800;BME280;48842;51.046;13.796;2023-05-20T00:25:24;101122.69;;;15.76;55.93
62800;BME280;48842;51.046;13.796;2023-05-20T00:27:49;101119.19;;;15.74;55.97
62800;BME280;48842;51.046;13.796;2023-05-20T00:30:14;101113.91;;;15.71;56.47
62800;BME280;48842;51.046;13.796;2023-05-20T00:32:40;101118.31;;;15.69;56.43
62800;BME280;48842;51.046;13.796;2023-05-20T00:35:05;101122.72;;;15.70;56.74
62800;BME280;48842;51.046;13.796;2023-05-20T00:37:31;101120.97;;;15.69;56.57
62800;BME280;48842;51.046;13.796;2023-05-20T00:39:56;101112.16;;;15.70;56.02
62800;BME280;48842;51.046;13.796;2023-05-20T00:42:23;101109.53;;;15.70;56.60
62800;BME280;48842;51.046;13.796;2023-05-20T00:44:48;101109.53;;;15.70;56.46
62800;BME280;48842;51.046;13.796;2023-05-20T00:47:17;101113.91;;;15.69;56.80
62800;BME280;48842;51.046;13.796;2023-05-20T00:49:44;101113.91;;;15.68;56.45
62800;BME280;48842;51.046;13.796;2023-05-20T00:52:10;101116.56;;;15.66;56.30
62800;BME280;48842;51.046;13.796;2023-05-20T00:54:35;101118.34;;;15.66;57.13
62800;BME280;48842;51.046;13.796;2023-05-20T00:57:02;101117.47;;;15.62;57.09
62800;BME280;48842;51.046;13.796;2023-05-20T00:59:29;101118.38;;;15.61;57.39
62800;BME280;48842;51.046;13.796;2023-05-20T01:01:55;101121.00;;;15.60;57.00
62800;BME280;48842;51.046;13.796;2023-05-20T01:04:20;101119.25;;;15.59;56.82
62800;BME280;48842;51.046;13.796;2023-05-20T01:06:45;101128.97;;;15.57;57.08
62800;BME280;48842;51.046;13.796;2023-05-20T01:09:12;101134.25;;;15.57;57.25
62800;BME280;48842;51.046;13.796;2023-05-20T01:11:43;101128.06;;;15.53;57.56
62800;BME280;48842;51.046;13.796;2023-05-20T01:14:12;101129.84;;;15.49;57.62
62800;BME280;48842;51.046;13.796;2023-05-20T01:16:40;101125.47;;;15.47;57.39
62800;BME280;48842;51.046;13.796;2023-05-20T01:19:17;101128.97;;;15.44;57.82
62800;BME280;48842;51.046;13.796;2023-05-20T01:21:46;101129.00;;;15.41;57.64
62800;BME280;48842;51.046;13.796;2023-05-20T01:24:12;101121.09;;;15.40;57.97
62800;BME280;48842;51.046;13.796;2023-05-20T01:26:37;101120.19;;;15.36;57.77
62800;BME280;48842;51.046;13.796;2023-05-20T01:29:03;101124.63;;;15.34;58.04
62800;BME280;48842;51.046;13.796;2023-05-20T01:31:31;101125.50;;;15.31;57.71
62800;BME280;48842;51.046;13.796;2023-05-20T01:33:58;101121.97;;;15.31;58.23
62800;BME280;48842;51.046;13.796;2023-05-20T01:36:24;101124.63;;;15.31;57.86
62800;BME280;48842;51.046;13.796;2023-05-20T01:38:52;101136.06;;;15.31;57.55
62800;BME280;48842;51.046;13.796;2023-05-20T01:41:24;101136.06;;;15.31;57.88
62800;BME280;48842;51.046;13.796;2023-05-20T01:43:54;101131.69;;;15.29;57.68
62800;BME280;48842;51.046;13.796;2023-05-20T01:46:20;101129.91;;;15.28;57.96
62800;BME280;48842;51.046;13.796;2023-05-20T01:48:45;101136.97;;;15.29;58.04
62800;BME280;48842;51.046;13.796;2023-05-20T01:51:10;101133.41;;;15.30;58.57
62800;BME280;48842;51.046;13.796;2023-05-20T01:53:35;101129.91;;;15.31;58.42
62800;BME280;48842;51.046;13.796;2023-05-20T01:56:01;101125.50;;;15.31;58.23
62800;BME280;48842;51.046;13.796;2023-05-20T01:58:26;101122.84;;;15.30;58.09
62800;BME280;48842;51.046;13.796;2023-05-20T02:00:51;101115.84;;;15.29;58.24
62800;BME280;48842;51.046;13.796;2023-05-20T02:03:16;101115.81;;;15.26;58.42
62800;BME280;48842;51.046;13.796;2023-05-20T02:05:42;101116.75;;;15.22;58.40
62800;BME280;48842;51.046;13.796;2023-05-20T02:08:07;101120.25;;;15.19;58.05
62800;BME280;48842;51.046;13.796;2023-05-20T02:10:33;101123.78;;;15.15;58.38
62800;BME280;48842;51.046;13.796;2023-05-20T02:12:58;101127.31;;;15.11;58.71
62800;BME280;48842;51.046;13.796;2023-05-20T02:15:24;101132.59;;;15.08;59.08
62800;BME280;48842;51.046;13.796;2023-05-20T02:17:49;101125.56;;;15.05;58.65
62800;BME280;48842;51.046;13.796;2023-05-20T02:20:15;101123.81;;;15.06;58.77
62800;BME280;48842;51.046;13.796;2023-05-20T02:22:40;101122.94;;;15.02;59.29
62800;BME280;48842;51.046;13.796;2023-05-20T02:25:06;101120.31;;;14.97;59.01
62800;BME280;48842;51.046;13.796;2023-05-20T02:27:32;101130.84;;;14.94;59.00
62800;BME280;48842;51.046;13.796;2023-05-20T02:29:57;101125.59;;;14.94;59.33
62800;BME280;48842;51.046;13.796;2023-05-20T02:32:22;101122.06;;;14.94;59.72
62800;BME280;48842;51.046;13.796;2023-05-20T02:34:52;101123.81;;;14.95;59.65
62800;BME280;48842;51.046;13.796;2023-05-20T02:37:18;101113.25;;;14.95;59.24
62800;BME280;48842;51.046;13.796;2023-05-20T02:39:43;101119.44;;;14.94;59.40
62800;BME280;48842;51.046;13.796;2023-05-20T02:42:08;101120.31;;;14.93;59.39
62800;BME280;48842;51.046;13.796;2023-05-20T02:44:33;101113.28;;;14.90;59.75
62800;BME280;48842;51.046;13.796;2023-05-20T02:46:59;101108.88;;;14.88;60.02
62800;BME280;48842;51.046;13.796;2023-05-20T02:49:24;101106.22;;;14.88;60.07
62800;BME280;48842;51.046;13.796;2023-05-20T02:51:49;101108.88;;;14.91;59.91
62800;BME280;48842;51.046;13.796;2023-05-20T02:54:14;101107.13;;;14.93;59.89
62800;BME280;48842;51.046;13.796;2023-05-20T02:56:40;101103.59;;;14.95;59.46
62800;BME280;48842;51.046;13.796;2023-05-20T02:59:05;101095.69;;;14.92;59.71
62800;BME280;48842;51.046;13.796;2023-05-20T03:01:31;101080.75;;;14.87;59.63
62800;BME280;48842;51.046;13.796;2023-05-20T03:03:59;101083.41;;;14.83;59.67
62800;BME280;48842;51.046;13.796;2023-05-20T03:06:24;101077.22;;;14.81;59.93
62800;BME280;48842;51.046;13.796;2023-05-20T03:08:50;101073.72;;;14.79;59.99
62800;BME280;48842;51.046;13.796;2023-05-20T03:11:15;101073.75;;;14.76;59.99
62800;BME280;48842;51.046;13.796;2023-05-20T03:13:40;101068.44;;;14.72;60.16
62800;BME280;48842;51.046;13.796;2023-05-20T03:16:06;101074.63;;;14.71;60.51
62800;BME280;48842;51.046;13.796;2023-05-20T03:18:31;101074.63;;;14.72;60.37
62800;BME280;48842;51.046;13.796;2023-05-20T03:20:57;101075.47;;;14.73;60.60
62800;BME280;48842;51.046;13.796;2023-05-20T03:23:22;101073.75;;;14.75;60.66
62800;BME280;48842;51.046;13.796;2023-05-20T03:25:47;101070.19;;;14.76;60.21
62800;BME280;48842;51.046;13.796;2023-05-20T03:28:12;101077.22;;;14.81;60.19
62800;BME280;48842;51.046;13.796;2023-05-20T03:30:38;101075.50;;;14.83;60.24
62800;BME280;48842;51.046;13.796;2023-05-20T03:33:03;101089.53;;;14.84;60.32
62800;BME280;48842;51.046;13.796;2023-05-20T03:35:29;101089.53;;;14.86;60.20
62800;BME280;48842;51.046;13.796;2023-05-20T03:37:55;101086.03;;;14.87;60.61
62800;BME280;48842;51.046;13.796;2023-05-20T03:40:20;101076.34;;;14.90;60.43
62800;BME280;48842;51.046;13.796;2023-05-20T03:42:45;101084.25;;;14.92;60.53
62800;BME280;48842;51.046;13.796;2023-05-20T03:45:10;101094.78;;;14.95;60.06
62800;BME280;48842;51.046;13.796;2023-05-20T03:47:36;101086.00;;;14.96;60.62
62800;BME280;48842;51.046;13.796;2023-05-20T03:50:01;101092.13;;;14.98;60.36
62800;BME280;48842;51.046;13.796;2023-05-20T03:52:26;101091.28;;;14.99;60.24
62800;BME280;48842;51.046;13.796;2023-05-20T03:54:52;101092.16;;;15.03;60.60
62800;BME280;48842;51.046;13.796;2023-05-20T03:57:17;101095.66;;;15.06;60.38
62800;BME280;48842;51.046;13.796;2023-05-20T03:59:44;101097.41;;;15.10;60.56
62800;BME280;48842;51.046;13.796;2023-05-20T04:02:09;101097.41;;;15.13;60.11
62800;BME280;48842;51.046;13.796;2023-05-20T04:04:35;101096.53;;;15.14;60.35
62800;BME280;48842;51.046;13.796;2023-05-20T04:07:00;101088.59;;;15.14;60.26
62800;BME280;48842;51.046;13.796;2023-05-20T04:09:26;101087.69;;;15.15;60.51
62800;BME280;48842;51.046;13.796;2023-05-20T04:11:51;101090.34;;;15.17;60.39
62800;BME280;48842;51.046;13.796;2023-05-20T04:14:16;101095.59;;;15.18;60.32
62800;BME280;48842;51.046;13.796;2023-05-20T04:16:42;101090.34;;;15.20;60.32
62800;BME280;48842;51.046;13.796;2023-05-20T04:19:07;101090.34;;;15.23;60.48
62800;BME280;48842;51.046;13.796;2023-05-20T04:21:32;101088.56;;;15.25;60.08
62800;BME280;48842;51.046;13.796;2023-05-20T04:23:58;101100.88;;;15.28;60.53
62800;BME280;48842;51.046;13.796;2023-05-20T04:26:23;101090.31;;;15.29;59.97
62800;BME280;48842;51.046;13.796;2023-05-20T04:28:48;101094.72;;;15.32;59.92
62800;BME280;48842;51.046;13.796;2023-05-20T04:31:14;101089.41;;;15.36;60.11
62800;BME280;48842;51.046;13.796;2023-05-20T04:33:39;101088.53;;;15.41;59.97
62800;BME280;48842;51.046;13.796;2023-05-20T04:36:06;101093.78;;;15.44;60.39
62800;BME280;48842;51.046;13.796;2023-05-20T04:38:32;101096.41;;;15.48;59.73
62800;BME280;48842;51.046;13.796;2023-05-20T04:40:58;101094.63;;;15.50;60.55
62800;BME280;48842;51.046;13.796;2023-05-20T04:43:24;101099.88;;;15.53;59.97
62800;BME280;48842;51.046;13.796;2023-05-20T04:45:50;101100.78;;;15.57;60.40
62800;BME280;48842;51.046;13.796;2023-05-20T04:48:17;101099.88;;;15.60;59.86
62800;BME280;48842;51.046;13.796;2023-05-20T04:50:42;101092.81;;;15.62;60.41
62800;BME280;48842;51.046;13.796;2023-05-20T04:53:07;101099.00;;;15.64;60.42
62800;BME280;48842;51.046;13.796;2023-05-20T04:55:33;101091.91;;;15.67;60.18
62800;BME280;48842;51.046;13.796;2023-05-20T04:58:01;101093.66;;;15.71;59.90
62800;BME280;48842;51.046;13.796;2023-05-20T05:00:26;101087.47;;;15.77;59.88
62800;BME280;48842;51.046;13.796;2023-05-20T05:02:51;101088.34;;;15.81;59.32
62800;BME280;48842;51.046;13.796;2023-05-20T05:05:16;101098.03;;;15.85;60.12
62800;BME280;48842;51.046;13.796;2023-05-20T05:07:42;101089.22;;;15.87;59.62
62800;BME280;48842;51.046;13.796;2023-05-20T05:10:07;101090.06;;;15.91;59.71
62800;BME280;48842;51.046;13.796;2023-05-20T05:12:32;101086.53;;;15.94;59.80
62800;BME280;48842;51.046;13.796;2023-05-20T05:14:58;101088.25;;;15.98;59.76
62800;BME280;48842;51.046;13.796;2023-05-20T05:17:23;101076.81;;;16.00;59.31
62800;BME280;48842;51.046;13.796;2023-05-20T05:19:49;101080.28;;;16.04;59.36
62800;BME280;48842;51.046;13.796;2023-05-20T05:22:14;101081.16;;;16.06;59.26
62800;BME280;48842;51.046;13.796;2023-05-20T05:24:39;101085.56;;;16.07;58.92
62800;BME280;48842;51.046;13.796;2023-05-20T05:27:05;101075.84;;;16.11;59.49
62800;BME280;48842;51.046;13.796;2023-05-20T05:29:30;101076.69;;;16.14;59.53
62800;BME280;48842;51.046;13.796;2023-05-20T05:31:55;101084.59;;;16.19;58.97
62800;BME280;48842;51.046;13.796;2023-05-20T05:34:20;101083.66;;;16.25;59.64
62800;BME280;48842;51.046;13.796;2023-05-20T05:36:46;101084.53;;;16.28;58.79
62800;BME280;48842;51.046;13.796;2023-05-20T05:39:11;101080.94;;;16.32;58.64
62800;BME280;48842;51.046;13.796;2023-05-20T05:41:36;101089.75;;;16.36;59.02
62800;BME280;48842;51.046;13.796;2023-05-20T05:44:03;101087.09;;;16.39;58.40
62800;BME280;48842;51.046;13.796;2023-05-20T05:46:28;101079.13;;;16.42;58.11
62800;BME280;48842;51.046;13.796;2023-05-20T05:48:54;101081.75;;;16.45;58.54
62800;BME280;48842;51.046;13.796;2023-05-20T05:51:19;101087.91;;;16.49;58.77
62800;BME280;48842;51.046;13.796;2023-05-20T05:53:44;101083.44;;;16.52;58.59
62800;BME280;48842;51.046;13.796;2023-05-20T05:56:09;101078.13;;;16.55;58.15
62800;BME280;48842;51.046;13.796;2023-05-20T05:58:35;101075.44;;;16.58;57.97
62800;BME280;48842;51.046;13.796;2023-05-20T06:01:01;101071.91;;;16.60;58.23
62800;BME280;48842;51.046;13.796;2023-05-20T06:03:26;101071.88;;;16.63;58.14
62800;BME280;48842;51.046;13.796;2023-05-20T06:05:51;101066.53;;;16.69;57.91
62800;BME280;48842;51.046;13.796;2023-05-20T06:08:17;101065.63;;;16.73;57.75
62800;BME280;48842;51.046;13.796;2023-05-20T06:10:49;101073.50;;;16.78;57.80
62800;BME280;48842;51.046;13.796;2023-05-20T06:13:14;101070.84;;;16.82;58.11
62800;BME280;48842;51.046;13.796;2023-05-20T06:15:39;101056.66;;;16.86;57.77
62800;BME280;48842;51.046;13.796;2023-05-20T06:18:05;101068.13;;;16.90;57.83
62800;BME280;48842;51.046;13.796;2023-05-20T06:20:30;101077.81;;;16.92;57.43
62800;BME280;48842;51.046;13.796;2023-05-20T06:22:55;101073.38;;;16.96;57.19
62800;BME280;48842;51.046;13.796;2023-05-20T06:25:21;101079.53;;;17.00;57.56
62800;BME280;48842;51.046;13.796;2023-05-20T06:27:47;101083.00;;;17.03;57.29
62800;BME280;48842;51.046;13.796;2023-05-20T06:30:12;101084.72;;;17.07;57.34
62800;BME280;48842;51.046;13.796;2023-05-20T06:32:37;101073.22;;;17.10;56.95
62800;BME280;48842;51.046;13.796;2023-05-20T06:35:03;101074.94;;;17.11;57.13
62800;BME280;48842;51.046;13.796;2023-05-20T06:37:28;101069.63;;;17.13;57.21
62800;BME280;48842;51.046;13.796;2023-05-20T06:39:54;101076.69;;;17.15;57.09
62800;BME280;48842;51.046;13.796;2023-05-20T06:42:20;101066.97;;;17.17;57.24
62800;BME280;48842;51.046;13.796;2023-05-20T06:44:45;101063.38;;;17.21;57.24
62800;BME280;48842;51.046;13.796;2023-05-20T06:47:13;101058.06;;;17.24;57.15
62800;BME280;48842;51.046;13.796;2023-05-20T06:49:38;101057.06;;;17.30;57.11
62800;BME280;48842;51.046;13.796;2023-05-20T06:52:04;101056.13;;;17.37;57.40
62800;BME280;48842;51.046;13.796;2023-05-20T06:54:29;101050.75;;;17.45;57.22
62800;BME280;48842;51.046;13.796;2023-05-20T06:56:55;101042.63;;;17.56;56.90
62800;BME280;48842;51.046;13.796;2023-05-20T06:59:20;101046.97;;;17.63;56.56
62800;BME280;48842;51.046;13.796;2023-05-20T07:01:45;101040.72;;;17.67;56.10
62800;BME280;48842;51.046;13.796;2023-05-20T07:04:11;101030.94;;;17.71;56.18
62800;BME280;48842;51.046;13.796;2023-05-20T07:06:36;101036.13;;;17.77;55.72
62800;BME280;48842;51.046;13.796;2023-05-20T07:09:01;101037.00;;;17.80;55.49
62800;BME280;48842;51.046;13.796;2023-05-20T07:11:26;101034.31;;;17.82;55.70
62800;BME280;48842;51.046;13.796;2023-05-20T07:13:52;101028.09;;;17.85;55.51
62800;BME280;48842;51.046;13.796;2023-05-20T07:16:17;101028.00;;;17.92;55.42
62800;BME280;48842;51.046;13.796;2023-05-20T07:18:42;101031.38;;;18.04;55.47
62800;BME280;48842;51.046;13.796;2023-05-20T07:21:08;101018.81;;;18.13;55.19
62800;BME280;48842;51.046;13.796;2023-05-20T07:23:33;101026.69;;;18.21;55.04
62800;BME280;48842;51.046;13.796;2023-05-20T07:25:59;101022.16;;;18.26;54.83
62800;BME280;48842;51.046;13.796;2023-05-20T07:28:25;101016.78;;;18.29;54.43
62800;BME280;48842;51.046;13.796;2023-05-20T07:30:50;101022.91;;;18.35;54.62
62800;BME280;48842;51.046;13.796;2023-05-20T07:33:17;101020.13;;;18.41;54.52
62800;BME280;48842;51.046;13.796;2023-05-20T07:35:43;101017.44;;;18.44;54.31
62800;BME280;48842;51.046;13.796;2023-05-20T07:38:10;101014.78;;;18.44;54.61
62800;BME280;48842;51.046;13.796;2023-05-20T07:40:36;101006.88;;;18.41;54.35
62800;BME280;48842;51.046;13.796;2023-05-20T07:43:02;100996.31;;;18.38;54.44
62800;BME280;48842;51.046;13.796;2023-05-20T07:45:28;101005.19;;;18.35;54.41
62800;BME280;48842;51.046;13.796;2023-05-20T07:47:53;101004.44;;;18.30;54.27
62800;BME280;48842;51.046;13.796;2023-05-20T07:50:18;101012.38;;;18.30;54.47
62800;BME280;48842;51.046;13.796;2023-05-20T07:52:43;101013.22;;;18.32;54.72
62800;BME280;48842;51.046;13.796;2023-05-20T07:55:09;101010.56;;;18.32;53.94
62800;BME280;48842;51.046;13.796;2023-05-20T07:57:34;101009.72;;;18.30;54.27
62800;BME280;48842;51.046;13.796;2023-05-20T07:59:59;101009.72;;;18.30;54.33
62800;BME280;48842;51.046;13.796;2023-05-20T08:02:25;101008.81;;;18.31;54.61
62800;BME280;48842;51.046;13.796;2023-05-20T08:04:50;101004.41;;;18.31;54.57
62800;BME280;48842;51.046;13.796;2023-05-20T08:07:15;101001.69;;;18.35;54.41
62800;BME280;48842;51.046;13.796;2023-05-20T08:09:40;100999.88;;;18.37;54.59
62800;BME280;48842;51.046;13.796;2023-05-20T08:12:06;101001.56;;;18.41;54.56
62800;BME280;48842;51.046;13.796;2023-05-20T08:14:31;100985.59;;;18.44;54.48
62800;BME280;48842;51.046;13.796;2023-05-20T08:16:56;100982.16;;;18.39;54.73
62800;BME280;48842;51.046;13.796;2023-05-20T08:19:22;100975.97;;;18.38;54.68
62800;BME280;48842;51.046;13.796;2023-05-20T08:21:47;100983.91;;;18.41;54.63
62800;BME280;48842;51.046;13.796;2023-05-20T08:24:12;100979.34;;;18.48;54.73
62800;BME280;48842;51.046;13.796;2023-05-20T08:26:37;100990.72;;;18.55;54.60
62800;BME280;48842;51.046;13.796;2023-05-20T08:29:03;100987.09;;;18.60;54.53
62800;BME280;48842;51.046;13.796;2023-05-20T08:31:28;100985.19;;;18.65;53.94
62800;BME280;48842;51.046;13.796;2023-05-20T08:33:53;100983.41;;;18.67;53.98
62800;BME280;48842;51.046;13.796;2023-05-20T08:36:19;100977.16;;;18.69;53.72
62800;BME280;48842;51.046;13.796;2023-05-20T08:38:44;100982.41;;;18.72;53.29
62800;BME280;48842;51.046;13.796;2023-05-20T08:41:09;100970.88;;;18.74;53.48
62800;BME280;48842;51.046;13.796;2023-05-20T08:43:34;100964.63;;;18.77;53.41
62800;BME280;48842;51.046;13.796;2023-05-20T08:46:01;100956.63;;;18.78;53.41
62800;BME280;48842;51.046;13.796;2023-05-20T08:48:29;100953.13;;;18.78;53.43
62800;BME280;48842;51.046;13.796;2023-05-20T08:50:56;100951.34;;;18.78;53.39
62800;BME280;48842;51.046;13.796;2023-05-20T08:53:22;100949.59;;;18.76;53.51
62800;BME280;48842;51.046;13.796;2023-05-20T08:55:52;100955.81;;;18.76;53.42
62800;BME280;48842;51.046;13.796;2023-05-20T08:58:20;100954.88;;;18.77;53.41
62800;BME280;48842;51.046;13.796;2023-05-20T09:00:46;100938.91;;;18.79;53.37
62800;BME280;48842;51.046;13.796;2023-05-20T09:03:11;100942.44;;;18.81;53.21
62800;BME280;48842;51.046;13.796;2023-05-20T09:05:37;100953.84;;;18.84;53.63
62800;BME280;48842;51.046;13.796;2023-05-20T09:08:06;100954.72;;;18.88;53.55
62800;BME280;48842;51.046;13.796;2023-05-20T09:10:32;100950.16;;;18.93;53.26
62800;BME280;48842;51.046;13.796;2023-05-20T09:13:02;100953.63;;;18.98;53.33
62800;BME280;48842;51.046;13.796;2023-05-20T09:15:29;100956.06;;;19.08;53.65
62800;BME280;48842;51.046;13.796;2023-05-20T09:17:54;100954.19;;;19.13;53.32
62800;BME280;48842;51.046;13.796;2023-05-20T09:20:21;100948.75;;;19.19;53.07
62800;BME280;48842;51.046;13.796;2023-05-20T09:22:50;100935.41;;;19.22;52.77
62800;BME280;48842;51.046;13.796;2023-05-20T09:25:19;100929.94;;;19.28;53.02
62800;BME280;48842;51.046;13.796;2023-05-20T09:27:44;100941.34;;;19.33;52.83
62800;BME280;48842;51.046;13.796;2023-05-20T09:30:09;100943.81;;;19.41;52.91
62800;BME280;48842;51.046;13.796;2023-05-20T09:32:36;100945.53;;;19.44;52.89
62800;BME280;48842;51.046;13.796;2023-05-20T09:35:02;100941.91;;;19.48;52.88
62800;BME280;48842;51.046;13.796;2023-05-20T09:37:28;100943.56;;;19.52;52.52
62800;BME280;48842;51.046;13.796;2023-05-20T09:39:56;100944.41;;;19.54;52.41
62800;BME280;48842;51.046;13.796;2023-05-20T09:42:41;100933.75;;;19.56;52.38
62800;BME280;48842;51.046;13.796;2023-05-20T09:45:08;100932.81;;;19.58;52.42
62800;BME280;48842;51.046;13.796;2023-05-20T09:47:37;100923.16;;;19.54;52.38
62800;BME280;48842;51.046;13.796;2023-05-20T09:50:07;100934.66;;;19.54;52.45
62800;BME280;48842;51.046;13.796;2023-05-20T09:52:34;100923.00;;;19.60;52.42
62800;BME280;48842;51.046;13.796;2023-05-20T09:55:02;100922.81;;;19.68;52.55
62800;BME280;48842;51.046;13.796;2023-05-20T09:57:32;100922.75;;;19.69;52.46
62800;BME280;48842;51.046;13.796;2023-05-20T09:59:58;100916.53;;;19.70;52.45
62800;BME280;48842;51.046;13.796;2023-05-20T10:02:23;100905.78;;;19.75;52.49
62800;BME280;48842;51.046;13.796;2023-05-20T10:04:50;100915.44;;;19.81;52.21
62800;BME280;48842;51.046;13.796;2023-05-20T10:10:28;100904.50;;;19.93;52.38
62800;BME280;48842;51.046;13.796;2023-05-20T10:13:24;100911.44;;;19.99;52.09
62800;BME280;48842;51.046;13.796;2023-05-20T10:19:02;100893.53;;;20.05;51.77
62800;BME280;48842;51.046;13.796;2023-05-20T10:21:29;100895.19;;;20.10;52.16
62800;BME280;48842;51.046;13.796;2023-05-20T10:24:04;100886.22;;;20.14;51.56
62800;BME280;48842;51.046;13.796;2023-05-20T10:26:40;100888.66;;;20.21;51.59
62800;BME280;48842;51.046;13.796;2023-05-20T10:29:18;100871.66;;;20.27;51.51
62800;BME280;48842;51.046;13.796;2023-05-20T10:31:47;100881.22;;;20.34;51.36
62800;BME280;48842;51.046;13.796;2023-05-20T10:34:14;100883.72;;;20.40;51.31
62800;BME280;48842;51.046;13.796;2023-05-20T10:36:45;100871.19;;;20.44;51.33
62800;BME280;48842;51.046;13.796;2023-05-20T10:39:15;100867.56;;;20.47;51.16
62800;BME280;48842;51.046;13.796;2023-05-20T10:41:41;100872.63;;;20.56;51.14
62800;BME280;48842;51.046;13.796;2023-05-20T10:44:06;100863.66;;;20.58;50.98
62800;BME280;48842;51.046;13.796;2023-05-20T10:46:33;100868.84;;;20.63;50.91
62800;BME280;48842;51.046;13.796;2023-05-20T10:48:58;100865.22;;;20.67;50.47
62800;BME280;48842;51.046;13.796;2023-05-20T10:51:27;100862.41;;;20.72;51.20
62800;BME280;48842;51.046;13.796;2023-05-20T10:53:54;100854.31;;;20.77;50.98
62800;BME280;48842;51.046;13.796;2023-05-20T10:56:21;100846.19;;;20.81;50.64
62800;BME280;48842;51.046;13.796;2023-05-20T10:58:47;100861.16;;;20.85;50.53
62800;BME280;48842;51.046;13.796;2023-05-20T11:01:12;100851.38;;;20.86;50.13
62800;BME280;48842;51.046;13.796;2023-05-20T11:03:39;100852.13;;;20.89;49.80
62800;BME280;48842;51.046;13.796;2023-05-20T11:06:16;100851.16;;;20.92;49.89
62800;BME280;48842;51.046;13.796;2023-05-20T11:08:42;100838.69;;;20.94;49.78
62800;BME280;48842;51.046;13.796;2023-05-20T11:11:09;100839.34;;;21.01;50.03
62800;BME280;48842;51.046;13.796;2023-05-20T11:13:35;100838.19;;;21.09;49.98
62800;BME280;48842;51.046;13.796;2023-05-20T11:16:00;100833.50;;;21.18;49.67
62800;BME280;48842;51.046;13.796;2023-05-20T11:18:26;100831.38;;;21.29;49.86
62800;BME280;48842;51.046;13.796;2023-05-20T11:20:56;100828.34;;;21.40;49.51
62800;BME280;48842;51.046;13.796;2023-05-20T11:23:22;100835.22;;;21.47;49.12
62800;BME280;48842;51.046;13.796;2023-05-20T11:25:51;100830.47;;;21.57;49.41
62800;BME280;48842;51.046;13.796;2023-05-20T11:28:18;100827.44;;;21.68;49.16
62800;BME280;48842;51.046;13.796;2023-05-20T11:30:44;100819.09;;;21.77;49.03
62800;BME280;48842;51.046;13.796;2023-05-20T11:33:14;100818.75;;;21.88;48.91
62800;BME280;48842;51.046;13.796;2023-05-20T11:35:49;100810.28;;;22.00;48.72
62800;BME280;48842;51.046;13.796;2023-05-20T11:38:15;100811.69;;;22.10;48.43
62800;BME280;48842;51.046;13.796;2023-05-20T11:40:54;100812.28;;;22.19;48.25
62800;BME280;48842;51.046;13.796;2023-05-20T11:43:20;100793.38;;;22.25;48.19
62800;BME280;48842;51.046;13.796;2023-05-20T11:45:47;100800.34;;;22.29;47.81
62800;BME280;48842;51.046;13.796;2023-05-20T11:48:17;100790.41;;;22.34;47.71
62800;BME280;48842;51.046;13.796;2023-05-20T11:50:44;100787.56;;;22.39;47.71
62800;BME280;48842;51.046;13.796;2023-05-20T11:53:14;100784.84;;;22.40;47.48
62800;BME280;48842;51.046;13.796;2023-05-20T11:55:48;100788.25;;;22.44;47.43
62800;BME280;48842;51.046;13.796;2023-05-20T11:58:28;100795.16;;;22.49;47.49
62800;BME280;48842;51.046;13.796;2023-05-20T12:00:54;100785.19;;;22.55;47.36
62800;BME280;48842;51.046;13.796;2023-05-20T12:03:20;100776.00;;;22.62;47.46
62800;BME280;48842;51.046;13.796;2023-05-20T12:05:45;100781.22;;;22.65;47.45
62800;BME280;48842;51.046;13.796;2023-05-20T12:08:14;100784.56;;;22.70;47.38
62800;BME280;48842;51.046;13.796;2023-05-20T12:10:40;100774.56;;;22.75;47.33
62800;BME280;48842;51.046;13.796;2023-05-20T12:13:07;100768.84;;;22.84;47.53
62800;BME280;48842;51.046;13.796;2023-05-20T12:15:37;100764.06;;;22.93;47.12
62800;BME280;48842;51.046;13.796;2023-05-20T12:18:03;100762.13;;;22.96;46.79
62800;BME280;48842;51.046;13.796;2023-05-20T12:20:28;100755.75;;;23.00;46.67
62800;BME280;48842;51.046;13.796;2023-05-20T12:22:54;100751.03;;;23.07;46.51
62800;BME280;48842;51.046;13.796;2023-05-20T12:25:20;100745.38;;;23.15;46.44
62800;BME280;48842;51.046;13.796;2023-05-20T12:27:46;100742.38;;;23.23;45.95
62800;BME280;48842;51.046;13.796;2023-05-20T12:30:15;100745.53;;;23.32;46.03
62800;BME280;48842;51.046;13.796;2023-05-20T12:32:40;100742.44;;;23.42;45.72
62800;BME280;48842;51.046;13.796;2023-05-20T12:35:07;100737.44;;;23.55;45.69
62800;BME280;48842;51.046;13.796;2023-05-20T12:37:33;100730.47;;;23.71;45.33
62800;BME280;48842;51.046;13.796;2023-05-20T12:39:58;100721.03;;;23.83;44.86
62800;BME280;48842;51.046;13.796;2023-05-20T12:42:24;100715.16;;;23.95;44.78